sensor_id;sensor_type;location;lat;lon;timestamp;P1;P2;P0
73565;PMS5003;61846;52.970;-3.168;2022-10-16T00:01:05;2;2;
73565;PMS5003;61846;52.970;-3.168;2022-10-16T00:03:27;4;2;
73565;PMS5003;61846;52.970;-3.168;2022-10-16T00:05:53;1;1;
73565;PMS5003;61846;52.970;-3.168;2022-10-16T00:08:18;2;1;
73565;PMS5003;61846;52.970;-3.168;2022-10-16T00:10:43;0;0;
73565;PMS5003;61846;52.970;-3.168;2022-10-16T00:13:09;2;1;
73565;PMS5003;61846;52.970;-3.168;2022-10-16T00:15:34;1;1;
73565;PMS5003;61846;52.970;-3.168;2022-10-16T00:18:00;0;0;
73565;PMS5003;61846;52.970;-3.168;2022-10-16T00:20:26;1;0;
73565;PMS5003;61846;52.970;-3.168;2022-10-16T00:22:51;2;1;
73565;PMS5003;61846;52.970;-3.168;2022-10-16T00:25:17;1;1;
73565;PMS5003;61846;52.970;-3.168;2022-10-16T00:27:42;2;1;
73565;PMS5003;61846;52.970;-3.168;2022-10-16T00:30:08;5;0;
73565;PMS5003;61846;52.970;-3.168;2022-10-16T00:32:33;0;0;
73565;PMS5003;61846;52.970;-3.168;2022-10-16T00:34:58;0;0;
73565;PMS5003;61846;52.970;-3.168;2022-10-16T00:37:24;2;0;
73565;PMS5003;61846;52.970;-3.168;2022-10-16T00:39:50;1;1;
73565;PMS5003;61846;52.970;-3.168;2022-10-16T00:42:16;2;2;
73565;PMS5003;61846;52.970;-3.168;2022-10-16T00:44:43;1;0;
73565;PMS5003;61846;52.970;-3.168;2022-10-16T00:47:07;1;1;
73565;PMS5003;61846;52.970;-3.168;2022-10-16T00:49:32;0;0;
73565;PMS5003;61846;52.970;-3.168;2022-10-16T00:51:57;3;1;
73565;PMS5003;61846;52.970;-3.168;2022-10-16T00:54:24;6;1;
73565;PMS5003;61846;52.970;-3.168;2022-10-16T00:56:48;3;2;
73565;PMS5003;61846;52.970;-3.168;2022-10-16T00:59:15;3;1;
73565;PMS5003;61846;52.970;-3.168;2022-10-16T01:01:39;3;1;
73565;PMS5003;61846;52.970;-3.168;2022-10-16T01:04:05;1;1;
73565;PMS5003;61846;52.970;-3.168;2022-10-16T01:06:32;2;2;
73565;PMS5003;61846;52.970;-3.168;2022-10-16T01:09:00;1;1;
73565;PMS5003;61846;52.970;-3.168;2022-10-16T01:11:23;6;2;
73565;PMS5003;61846;52.970;-3.168;2022-10-16T01:13:48;2;1;
73565;PMS5003;61846;52.970;-3.168;2022-10-16T01:16:13;6;2;
73565;PMS5003;61846;52.970;-3.168;2022-10-16T01:18:39;3;1;
73565;PMS5003;61846;52.970;-3.168;2022-10-16T01:21:05;2;2;
73565;PMS5003;61846;52.970;-3.168;2022-10-16T01:23:34;3;1;
73565;PMS5003;61846;52.970;-3.168;2022-10-16T01:25:59;1;1;
73565;PMS5003;61846;52.970;-3.168;2022-10-16T01:28:21;3;1;
73565;PMS5003;61846;52.970;-3.168;2022-10-16T01:30:46;2;0;
73565;PMS5003;61846;52.970;-3.168;2022-10-16T01:33:13;3;1;
73565;PMS5003;61846;52.970;-3.168;2022-10-16T01:35:38;1;1;
73565;PMS5003;61846;52.970;-3.168;2022-10-16T01:38:04;1;0;
73565;PMS5003;61846;52.970;-3.168;2022-10-16T01:40:28;0;0;
73565;PMS5003;61846;52.970;-3.168;2022-10-16T01:42:56;5;1;
73565;PMS5003;61846;52.970;-3.168;2022-10-16T01:45:20;2;2;
73565;PMS5003;61846;52.970;-3.168;2022-10-16T01:47:45;2;1;
73565;PMS5003;61846;52.970;-3.168;2022-10-16T01:50:11;1;1;
73565;PMS5003;61846;52.970;-3.168;2022-10-16T01:52:37;2;0;
73565;PMS5003;61846;52.970;-3.168;2022-10-16T01:55:02;6;2;
73565;PMS5003;61846;52.970;-3.168;2022-10-16T01:57:27;2;2;
73565;PMS5003;61846;52.970;-3.168;2022-10-16T01:59:54;2;2;
73565;PMS5003;61846;52.970;-3.168;2022-10-16T02:02:19;0;0;
73565;PMS5003;61846;52.970;-3.168;2022-10-16T02:04:45;2;1;
73565;PMS5003;61846;52.970;-3.168;2022-10-16T02:07:10;1;0;
73565;PMS5003;61846;52.970;-3.168;2022-10-16T02:09:35;4;1;
73565;PMS5003;61846;52.970;-3.168;2022-10-16T02:12:03;1;0;
73565;PMS5003;61846;52.970;-3.168;2022-10-16T02:14:27;4;2;
73565;PMS5003;61846;52.970;-3.168;2022-10-16T02:16:52;5;2;
73565;PMS5003;61846;52.970;-3.168;2022-10-16T02:19:18;2;1;
73565;PMS5003;61846;52.970;-3.168;2022-10-16T02:21:44;2;1;
73565;PMS5003;61846;52.970;-3.168;2022-10-16T02:24:11;3;1;
73565;PMS5003;61846;52.970;-3.168;2022-10-16T02:26:35;1;1;
73565;PMS5003;61846;52.970;-3.168;2022-10-16T02:29:01;1;1;
73565;PMS5003;61846;52.970;-3.168;2022-10-16T02:31:27;3;2;
73565;PMS5003;61846;52.970;-3.168;2022-10-16T02:36:17;1;1;
73565;PMS5003;61846;52.970;-3.168;2022-10-16T02:38:42;2;1;
73565;PMS5003;61846;52.970;-3.168;2022-10-16T02:41:08;0;0;
73565;PMS5003;61846;52.970;-3.168;2022-10-16T02:43:34;1;1;
73565;PMS5003;61846;52.970;-3.168;2022-10-16T02:45:59;0;0;
73565;PMS5003;61846;52.970;-3.168;2022-10-16T02:48:25;1;1;
73565;PMS5003;61846;52.970;-3.168;2022-10-16T02:50:50;0;0;
73565;PMS5003;61846;52.970;-3.168;2022-10-16T02:53:16;2;1;
73565;PMS5003;61846;52.970;-3.168;2022-10-16T02:55:41;0;0;
73565;PMS5003;61846;52.970;-3.168;2022-10-16T02:58:07;0;0;
73565;PMS5003;61846;52.970;-3.168;2022-10-16T03:00:33;0;0;
73565;PMS5003;61846;52.970;-3.168;2022-10-16T03:02:58;0;0;
73565;PMS5003;61846;52.970;-3.168;2022-10-16T03:05:24;1;0;
73565;PMS5003;61846;52.970;-3.168;2022-10-16T03:07:49;2;0;
73565;PMS5003;61846;52.970;-3.168;2022-10-16T03:10:15;0;0;
73565;PMS5003;61846;52.970;-3.168;2022-10-16T03:12:41;0;0;
73565;PMS5003;61846;52.970;-3.168;2022-10-16T03:15:07;0;0;
73565;PMS5003;61846;52.970;-3.168;2022-10-16T03:17:32;3;0;
73565;PMS5003;61846;52.970;-3.168;2022-10-16T03:19:57;0;0;
73565;PMS5003;61846;52.970;-3.168;2022-10-16T03:22:23;0;0;
73565;PMS5003;61846;52.970;-3.168;2022-10-16T03:24:49;1;1;
73565;PMS5003;61846;52.970;-3.168;2022-10-16T03:27:14;0;0;
73565;PMS5003;61846;52.970;-3.168;2022-10-16T03:29:40;2;0;
73565;PMS5003;61846;52.970;-3.168;2022-10-16T03:32:05;0;0;
73565;PMS5003;61846;52.970;-3.168;2022-10-16T03:34:30;1;1;
73565;PMS5003;61846;52.970;-3.168;2022-10-16T03:36:56;1;1;
73565;PMS5003;61846;52.970;-3.168;2022-10-16T03:39:22;2;1;
73565;PMS5003;61846;52.970;-3.168;2022-10-16T03:41:47;0;0;
73565;PMS5003;61846;52.970;-3.168;2022-10-16T03:44:13;2;0;
73565;PMS5003;61846;52.970;-3.168;2022-10-16T03:46:39;2;0;
73565;PMS5003;61846;52.970;-3.168;2022-10-16T03:49:04;1;0;
73565;PMS5003;61846;52.970;-3.168;2022-10-16T03:51:30;0;0;
73565;PMS5003;61846;52.970;-3.168;2022-10-16T03:53:55;0;0;
73565;PMS5003;61846;52.970;-3.168;2022-10-16T03:56:21;0;0;
73565;PMS5003;61846;52.970;-3.168;2022-10-16T03:58:46;1;1;
73565;PMS5003;61846;52.970;-3.168;2022-10-16T04:01:12;4;1;
73565;PMS5003;61846;52.970;-3.168;2022-10-16T04:03:38;1;0;
73565;PMS5003;61846;52.970;-3.168;2022-10-16T04:06:03;2;0;
73565;PMS5003;61846;52.970;-3.168;2022-10-16T04:08:29;1;0;
73565;PMS5003;61846;52.970;-3.168;2022-10-16T04:10:54;2;0;
73565;PMS5003;61846;52.970;-3.168;2022-10-16T04:13:20;0;0;
73565;PMS5003;61846;52.970;-3.168;2022-10-16T04:15:45;0;0;
73565;PMS5003;61846;52.970;-3.168;2022-10-16T04:18:11;1;0;
73565;PMS5003;61846;52.970;-3.168;2022-10-16T04:20:36;0;0;
73565;PMS5003;61846;52.970;-3.168;2022-10-16T04:23:02;1;0;
73565;PMS5003;61846;52.970;-3.168;2022-10-16T04:25:28;2;0;
73565;PMS5003;61846;52.970;-3.168;2022-10-16T04:27:53;1;1;
73565;PMS5003;61846;52.970;-3.168;2022-10-16T04:30:19;1;0;
73565;PMS5003;61846;52.970;-3.168;2022-10-16T04:32:47;1;1;
73565;PMS5003;61846;52.970;-3.168;2022-10-16T04:35:10;4;1;
73565;PMS5003;61846;52.970;-3.168;2022-10-16T04:37:36;0;0;
73565;PMS5003;61846;52.970;-3.168;2022-10-16T04:40:02;1;1;
73565;PMS5003;61846;52.970;-3.168;2022-10-16T04:42:27;3;1;
73565;PMS5003;61846;52.970;-3.168;2022-10-16T04:44:53;1;1;
73565;PMS5003;61846;52.970;-3.168;2022-10-16T04:47:18;2;0;
73565;PMS5003;61846;52.970;-3.168;2022-10-16T04:49:44;0;0;
73565;PMS5003;61846;52.970;-3.168;2022-10-16T04:52:09;1;1;
73565;PMS5003;61846;52.970;-3.168;2022-10-16T04:54:35;1;0;
73565;PMS5003;61846;52.970;-3.168;2022-10-16T04:57:00;1;0;
73565;PMS5003;61846;52.970;-3.168;2022-10-16T04:59:26;2;2;
73565;PMS5003;61846;52.970;-3.168;2022-10-16T05:01:52;2;0;
73565;PMS5003;61846;52.970;-3.168;2022-10-16T05:04:17;0;0;
73565;PMS5003;61846;52.970;-3.168;2022-10-16T05:06:43;0;0;
73565;PMS5003;61846;52.970;-3.168;2022-10-16T05:09:09;0;0;
73565;PMS5003;61846;52.970;-3.168;2022-10-16T05:11:34;0;0;
73565;PMS5003;61846;52.970;-3.168;2022-10-16T05:14:00;2;2;
73565;PMS5003;61846;52.970;-3.168;2022-10-16T05:16:25;3;0;
73565;PMS5003;61846;52.970;-3.168;2022-10-16T05:18:51;0;0;
73565;PMS5003;61846;52.970;-3.168;2022-10-16T05:21:16;0;0;
73565;PMS5003;61846;52.970;-3.168;2022-10-16T05:23:42;0;0;
73565;PMS5003;61846;52.970;-3.168;2022-10-16T05:26:07;1;1;
73565;PMS5003;61846;52.970;-3.168;2022-10-16T05:28:33;0;0;
73565;PMS5003;61846;52.970;-3.168;2022-10-16T05:30:58;0;0;
73565;PMS5003;61846;52.970;-3.168;2022-10-16T05:33:24;1;0;
73565;PMS5003;61846;52.970;-3.168;2022-10-16T05:35:50;0;0;
73565;PMS5003;61846;52.970;-3.168;2022-10-16T05:38:15;0;0;
73565;PMS5003;61846;52.970;-3.168;2022-10-16T05:40:41;0;0;
73565;PMS5003;61846;52.970;-3.168;2022-10-16T05:43:06;1;0;
73565;PMS5003;61846;52.970;-3.168;2022-10-16T05:45:32;0;0;
73565;PMS5003;61846;52.970;-3.168;2022-10-16T05:47:57;4;1;
73565;PMS5003;61846;52.970;-3.168;2022-10-16T05:50:23;1;1;
73565;PMS5003;61846;52.970;-3.168;2022-10-16T05:52:49;0;0;
73565;PMS5003;61846;52.970;-3.168;2022-10-16T05:55:14;0;0;
73565;PMS5003;61846;52.970;-3.168;2022-10-16T05:57:40;1;1;
73565;PMS5003;61846;52.970;-3.168;2022-10-16T06:00:06;0;0;
73565;PMS5003;61846;52.970;-3.168;2022-10-16T06:02:31;0;0;
73565;PMS5003;61846;52.970;-3.168;2022-10-16T06:04:56;1;1;
73565;PMS5003;61846;52.970;-3.168;2022-10-16T06:07:22;1;0;
73565;PMS5003;61846;52.970;-3.168;2022-10-16T06:09:48;1;0;
73565;PMS5003;61846;52.970;-3.168;2022-10-16T06:12:13;1;1;
73565;PMS5003;61846;52.970;-3.168;2022-10-16T06:14:39;2;1;
73565;PMS5003;61846;52.970;-3.168;2022-10-16T06:17:04;0;0;
73565;PMS5003;61846;52.970;-3.168;2022-10-16T06:19:30;0;0;
73565;PMS5003;61846;52.970;-3.168;2022-10-16T06:21:55;2;0;
73565;PMS5003;61846;52.970;-3.168;2022-10-16T06:24:21;0;0;
73565;PMS5003;61846;52.970;-3.168;2022-10-16T06:26:47;0;0;
73565;PMS5003;61846;52.970;-3.168;2022-10-16T06:29:12;2;1;
73565;PMS5003;61846;52.970;-3.168;2022-10-16T06:31:38;2;1;
73565;PMS5003;61846;52.970;-3.168;2022-10-16T06:34:03;2;1;
73565;PMS5003;61846;52.970;-3.168;2022-10-16T06:36:29;1;0;
73565;PMS5003;61846;52.970;-3.168;2022-10-16T06:38:55;0;0;
73565;PMS5003;61846;52.970;-3.168;2022-10-16T06:41:21;0;0;
73565;PMS5003;61846;52.970;-3.168;2022-10-16T06:43:46;11;7;
73565;PMS5003;61846;52.970;-3.168;2022-10-16T06:46:11;7;1;
73565;PMS5003;61846;52.970;-3.168;2022-10-16T06:48:37;2;1;
73565;PMS5003;61846;52.970;-3.168;2022-10-16T06:51:03;2;1;
73565;PMS5003;61846;52.970;-3.168;2022-10-16T06:53:29;2;2;
73565;PMS5003;61846;52.970;-3.168;2022-10-16T06:55:53;1;1;
73565;PMS5003;61846;52.970;-3.168;2022-10-16T06:58:19;0;0;
73565;PMS5003;61846;52.970;-3.168;2022-10-16T07:00:45;3;1;
73565;PMS5003;61846;52.970;-3.168;2022-10-16T07:03:10;0;0;
73565;PMS5003;61846;52.970;-3.168;2022-10-16T07:05:37;1;1;
73565;PMS5003;61846;52.970;-3.168;2022-10-16T07:08:01;1;1;
73565;PMS5003;61846;52.970;-3.168;2022-10-16T07:10:27;2;2;
73565;PMS5003;61846;52.970;-3.168;2022-10-16T07:12:53;2;2;
73565;PMS5003;61846;52.970;-3.168;2022-10-16T07:15:18;0;0;
73565;PMS5003;61846;52.970;-3.168;2022-10-16T07:17:44;3;2;
73565;PMS5003;61846;52.970;-3.168;2022-10-16T07:20:10;3;0;
73565;PMS5003;61846;52.970;-3.168;2022-10-16T07:22:35;3;2;
73565;PMS5003;61846;52.970;-3.168;2022-10-16T07:25:01;0;0;
73565;PMS5003;61846;52.970;-3.168;2022-10-16T07:27:27;2;0;
73565;PMS5003;61846;52.970;-3.168;2022-10-16T07:29:52;1;1;
73565;PMS5003;61846;52.970;-3.168;2022-10-16T07:32:17;0;0;
73565;PMS5003;61846;52.970;-3.168;2022-10-16T07:34:43;3;1;
73565;PMS5003;61846;52.970;-3.168;2022-10-16T07:37:09;1;1;
73565;PMS5003;61846;52.970;-3.168;2022-10-16T07:39:34;2;1;
73565;PMS5003;61846;52.970;-3.168;2022-10-16T07:42:00;2;2;
73565;PMS5003;61846;52.970;-3.168;2022-10-16T07:44:25;5;3;
73565;PMS5003;61846;52.970;-3.168;2022-10-16T07:46:51;12;12;
73565;PMS5003;61846;52.970;-3.168;2022-10-16T07:49:16;6;6;
73565;PMS5003;61846;52.970;-3.168;2022-10-16T07:51:41;5;5;
73565;PMS5003;61846;52.970;-3.168;2022-10-16T07:54:07;13;10;
73565;PMS5003;61846;52.970;-3.168;2022-10-16T07:56:32;15;13;
73565;PMS5003;61846;52.970;-3.168;2022-10-16T07:58:57;16;15;
73565;PMS5003;61846;52.970;-3.168;2022-10-16T08:01:22;20;17;
73565;PMS5003;61846;52.970;-3.168;2022-10-16T08:03:48;22;19;
73565;PMS5003;61846;52.970;-3.168;2022-10-16T08:06:13;24;19;
73565;PMS5003;61846;52.970;-3.168;2022-10-16T08:08:39;26;18;
73565;PMS5003;61846;52.970;-3.168;2022-10-16T08:11:04;25;20;
73565;PMS5003;61846;52.970;-3.168;2022-10-16T08:13:29;20;15;
73565;PMS5003;61846;52.970;-3.168;2022-10-16T08:15:55;14;11;
73565;PMS5003;61846;52.970;-3.168;2022-10-16T08:18:21;9;6;
73565;PMS5003;61846;52.970;-3.168;2022-10-16T08:20:46;7;5;
73565;PMS5003;61846;52.970;-3.168;2022-10-16T08:23:13;12;6;
73565;PMS5003;61846;52.970;-3.168;2022-10-16T08:25:37;2;2;
73565;PMS5003;61846;52.970;-3.168;2022-10-16T08:28:03;1;1;
73565;PMS5003;61846;52.970;-3.168;2022-10-16T08:30:28;0;0;
73565;PMS5003;61846;52.970;-3.168;2022-10-16T08:32:53;1;1;
73565;PMS5003;61846;52.970;-3.168;2022-10-16T08:35:19;0;0;
73565;PMS5003;61846;52.970;-3.168;2022-10-16T08:37:45;1;1;
73565;PMS5003;61846;52.970;-3.168;2022-10-16T08:40:13;1;1;
73565;PMS5003;61846;52.970;-3.168;2022-10-16T08:42:39;0;0;
73565;PMS5003;61846;52.970;-3.168;2022-10-16T08:45:04;1;0;
73565;PMS5003;61846;52.970;-3.168;2022-10-16T08:47:30;1;0;
73565;PMS5003;61846;52.970;-3.168;2022-10-16T08:49:55;3;1;
73565;PMS5003;61846;52.970;-3.168;2022-10-16T08:52:18;2;2;
73565;PMS5003;61846;52.970;-3.168;2022-10-16T08:54:44;1;1;
73565;PMS5003;61846;52.970;-3.168;2022-10-16T08:57:09;0;0;
73565;PMS5003;61846;52.970;-3.168;2022-10-16T08:59:34;2;2;
73565;PMS5003;61846;52.970;-3.168;2022-10-16T09:02:00;1;0;
73565;PMS5003;61846;52.970;-3.168;2022-10-16T09:04:33;0;0;
73565;PMS5003;61846;52.970;-3.168;2022-10-16T09:06:52;0;0;
73565;PMS5003;61846;52.970;-3.168;2022-10-16T09:09:29;0;0;
73565;PMS5003;61846;52.970;-3.168;2022-10-16T09:11:44;4;2;
73565;PMS5003;61846;52.970;-3.168;2022-10-16T09:14:11;1;1;
73565;PMS5003;61846;52.970;-3.168;2022-10-16T09:16:33;0;0;
73565;PMS5003;61846;52.970;-3.168;2022-10-16T09:19:00;1;0;
73565;PMS5003;61846;52.970;-3.168;2022-10-16T09:21:24;0;0;
73565;PMS5003;61846;52.970;-3.168;2022-10-16T09:23:49;1;1;
73565;PMS5003;61846;52.970;-3.168;2022-10-16T09:26:15;4;1;
73565;PMS5003;61846;52.970;-3.168;2022-10-16T09:28:40;2;1;
73565;PMS5003;61846;52.970;-3.168;2022-10-16T09:31:07;0;0;
73565;PMS5003;61846;52.970;-3.168;2022-10-16T09:33:33;1;1;
73565;PMS5003;61846;52.970;-3.168;2022-10-16T09:35:57;0;0;
73565;PMS5003;61846;52.970;-3.168;2022-10-16T09:38:24;1;1;
73565;PMS5003;61846;52.970;-3.168;2022-10-16T09:40:47;1;1;
73565;PMS5003;61846;52.970;-3.168;2022-10-16T09:43:17;0;0;
73565;PMS5003;61846;52.970;-3.168;2022-10-16T09:45:38;2;2;
73565;PMS5003;61846;52.970;-3.168;2022-10-16T09:50:29;3;1;
73565;PMS5003;61846;52.970;-3.168;2022-10-16T09:53:04;0;0;
73565;PMS5003;61846;52.970;-3.168;2022-10-16T09:55:20;0;0;
73565;PMS5003;61846;52.970;-3.168;2022-10-16T09:57:49;0;0;
73565;PMS5003;61846;52.970;-3.168;2022-10-16T10:00:15;0;0;
73565;PMS5003;61846;52.970;-3.168;2022-10-16T10:02:36;0;0;
73565;PMS5003;61846;52.970;-3.168;2022-10-16T10:05:02;0;0;
73565;PMS5003;61846;52.970;-3.168;2022-10-16T10:07:28;0;0;
73565;PMS5003;61846;52.970;-3.168;2022-10-16T10:09:52;1;1;
73565;PMS5003;61846;52.970;-3.168;2022-10-16T10:12:19;1;1;
73565;PMS5003;61846;52.970;-3.168;2022-10-16T10:14:43;4;0;
73565;PMS5003;61846;52.970;-3.168;2022-10-16T10:17:13;4;1;
73565;PMS5003;61846;52.970;-3.168;2022-10-16T10:19:37;0;0;
73565;PMS5003;61846;52.970;-3.168;2022-10-16T10:21:59;1;1;
73565;PMS5003;61846;52.970;-3.168;2022-10-16T10:24:25;0;0;
73565;PMS5003;61846;52.970;-3.168;2022-10-16T10:26:52;1;1;
73565;PMS5003;61846;52.970;-3.168;2022-10-16T10:29:18;1;1;
73565;PMS5003;61846;52.970;-3.168;2022-10-16T10:31:42;1;1;
73565;PMS5003;61846;52.970;-3.168;2022-10-16T10:34:11;4;4;
73565;PMS5003;61846;52.970;-3.168;2022-10-16T10:36:33;0;0;
73565;PMS5003;61846;52.970;-3.168;2022-10-16T10:38:58;2;1;
73565;PMS5003;61846;52.970;-3.168;2022-10-16T10:41:34;0;0;
73565;PMS5003;61846;52.970;-3.168;2022-10-16T10:43:52;0;0;
73565;PMS5003;61846;52.970;-3.168;2022-10-16T10:46:14;2;1;
73565;PMS5003;61846;52.970;-3.168;2022-10-16T10:48:44;1;1;
73565;PMS5003;61846;52.970;-3.168;2022-10-16T10:51:05;2;0;
73565;PMS5003;61846;52.970;-3.168;2022-10-16T10:53:33;2;2;
73565;PMS5003;61846;52.970;-3.168;2022-10-16T10:55:59;2;1;
73565;PMS5003;61846;52.970;-3.168;2022-10-16T10:58:26;0;0;
73565;PMS5003;61846;52.970;-3.168;2022-10-16T11:00:48;3;0;
73565;PMS5003;61846;52.970;-3.168;2022-10-16T11:03:13;0;0;
73565;PMS5003;61846;52.970;-3.168;2022-10-16T11:05:39;3;2;
73565;PMS5003;61846;52.970;-3.168;2022-10-16T11:08:03;6;4;
73565;PMS5003;61846;52.970;-3.168;2022-10-16T11:10:28;2;2;
73565;PMS5003;61846;52.970;-3.168;2022-10-16T11:12:55;13;6;
73565;PMS5003;61846;52.970;-3.168;2022-10-16T11:15:19;11;9;
73565;PMS5003;61846;52.970;-3.168;2022-10-16T11:17:44;3;3;
73565;PMS5003;61846;52.970;-3.168;2022-10-16T11:20:12;4;1;
73565;PMS5003;61846;52.970;-3.168;2022-10-16T11:22:35;3;1;
73565;PMS5003;61846;52.970;-3.168;2022-10-16T11:25:01;1;0;
73565;PMS5003;61846;52.970;-3.168;2022-10-16T11:27:27;4;1;
73565;PMS5003;61846;52.970;-3.168;2022-10-16T11:29:52;6;5;
73565;PMS5003;61846;52.970;-3.168;2022-10-16T11:32:19;4;1;
73565;PMS5003;61846;52.970;-3.168;2022-10-16T11:34:42;4;4;
73565;PMS5003;61846;52.970;-3.168;2022-10-16T11:37:08;2;2;
73565;PMS5003;61846;52.970;-3.168;2022-10-16T11:39:31;2;1;
73565;PMS5003;61846;52.970;-3.168;2022-10-16T11:41:59;2;2;
73565;PMS5003;61846;52.970;-3.168;2022-10-16T11:44:27;1;1;
73565;PMS5003;61846;52.970;-3.168;2022-10-16T11:46:49;0;0;
73565;PMS5003;61846;52.970;-3.168;2022-10-16T11:49:14;3;1;
73565;PMS5003;61846;52.970;-3.168;2022-10-16T11:51:39;1;0;
73565;PMS5003;61846;52.970;-3.168;2022-10-16T11:54:05;0;0;
73565;PMS5003;61846;52.970;-3.168;2022-10-16T11:56:29;3;1;
73565;PMS5003;61846;52.970;-3.168;2022-10-16T11:58:56;0;0;
73565;PMS5003;61846;52.970;-3.168;2022-10-16T12:01:22;2;2;
73565;PMS5003;61846;52.970;-3.168;2022-10-16T12:03:46;0;0;
73565;PMS5003;61846;52.970;-3.168;2022-10-16T12:06:13;1;1;
73565;PMS5003;61846;52.970;-3.168;2022-10-16T12:08:36;2;2;
73565;PMS5003;61846;52.970;-3.168;2022-10-16T12:11:07;4;3;
73565;PMS5003;61846;52.970;-3.168;2022-10-16T12:13:29;6;4;
73565;PMS5003;61846;52.970;-3.168;2022-10-16T12:15:52;3;3;
73565;PMS5003;61846;52.970;-3.168;2022-10-16T12:18:21;2;2;
73565;PMS5003;61846;52.970;-3.168;2022-10-16T12:20:43;1;0;
73565;PMS5003;61846;52.970;-3.168;2022-10-16T12:25:34;2;0;
73565;PMS5003;61846;52.970;-3.168;2022-10-16T12:28:01;2;1;
73565;PMS5003;61846;52.970;-3.168;2022-10-16T12:30:26;1;1;
73565;PMS5003;61846;52.970;-3.168;2022-10-16T12:32:53;1;1;
73565;PMS5003;61846;52.970;-3.168;2022-10-16T12:35:17;1;1;
73565;PMS5003;61846;52.970;-3.168;2022-10-16T12:37:41;0;0;
73565;PMS5003;61846;52.970;-3.168;2022-10-16T12:40:11;6;5;
73565;PMS5003;61846;52.970;-3.168;2022-10-16T12:42:34;3;3;
73565;PMS5003;61846;52.970;-3.168;2022-10-16T12:44:57;2;2;
73565;PMS5003;61846;52.970;-3.168;2022-10-16T12:47:24;2;2;
73565;PMS5003;61846;52.970;-3.168;2022-10-16T12:49:49;1;1;
73565;PMS5003;61846;52.970;-3.168;2022-10-16T12:54:39;3;3;
73565;PMS5003;61846;52.970;-3.168;2022-10-16T12:57:12;0;0;
73565;PMS5003;61846;52.970;-3.168;2022-10-16T12:59:33;3;2;
73565;PMS5003;61846;52.970;-3.168;2022-10-16T13:02:01;8;4;
73565;PMS5003;61846;52.970;-3.168;2022-10-16T13:06:48;2;2;
73565;PMS5003;61846;52.970;-3.168;2022-10-16T13:09:17;2;2;
73565;PMS5003;61846;52.970;-3.168;2022-10-16T13:14:07;1;1;
73565;PMS5003;61846;52.970;-3.168;2022-10-16T13:16:30;2;0;
73565;PMS5003;61846;52.970;-3.168;2022-10-16T13:18:56;1;1;
73565;PMS5003;61846;52.970;-3.168;2022-10-16T13:21:23;0;0;
73565;PMS5003;61846;52.970;-3.168;2022-10-16T13:23:48;2;0;
73565;PMS5003;61846;52.970;-3.168;2022-10-16T13:26:14;1;1;
73565;PMS5003;61846;52.970;-3.168;2022-10-16T13:28:35;0;0;
73565;PMS5003;61846;52.970;-3.168;2022-10-16T13:31:01;0;0;
73565;PMS5003;61846;52.970;-3.168;2022-10-16T13:33:29;4;2;
73565;PMS5003;61846;52.970;-3.168;2022-10-16T13:35:53;1;1;
73565;PMS5003;61846;52.970;-3.168;2022-10-16T13:38:18;1;0;
73565;PMS5003;61846;52.970;-3.168;2022-10-16T13:40:49;4;1;
73565;PMS5003;61846;52.970;-3.168;2022-10-16T13:43:08;2;1;
73565;PMS5003;61846;52.970;-3.168;2022-10-16T13:45:34;2;1;
73565;PMS5003;61846;52.970;-3.168;2022-10-16T13:48:03;7;3;
73565;PMS5003;61846;52.970;-3.168;2022-10-16T13:50:25;2;2;
73565;PMS5003;61846;52.970;-3.168;2022-10-16T13:52:50;1;0;
73565;PMS5003;61846;52.970;-3.168;2022-10-16T13:55:16;0;0;
73565;PMS5003;61846;52.970;-3.168;2022-10-16T13:57:41;2;1;
73565;PMS5003;61846;52.970;-3.168;2022-10-16T14:02:33;1;1;
73565;PMS5003;61846;52.970;-3.168;2022-10-16T14:04:57;0;0;
73565;PMS5003;61846;52.970;-3.168;2022-10-16T14:07:24;0;0;
73565;PMS5003;61846;52.970;-3.168;2022-10-16T14:09:48;1;1;
73565;PMS5003;61846;52.970;-3.168;2022-10-16T14:12:13;6;1;
73565;PMS5003;61846;52.970;-3.168;2022-10-16T14:14:40;5;1;
73565;PMS5003;61846;52.970;-3.168;2022-10-16T14:17:04;0;0;
73565;PMS5003;61846;52.970;-3.168;2022-10-16T14:19:30;2;1;
73565;PMS5003;61846;52.970;-3.168;2022-10-16T14:21:56;1;1;
73565;PMS5003;61846;52.970;-3.168;2022-10-16T14:24:25;3;1;
73565;PMS5003;61846;52.970;-3.168;2022-10-16T14:26:46;4;4;
73565;PMS5003;61846;52.970;-3.168;2022-10-16T14:29:13;1;1;
73565;PMS5003;61846;52.970;-3.168;2022-10-16T14:31:37;2;1;
73565;PMS5003;61846;52.970;-3.168;2022-10-16T14:34:03;1;1;
73565;PMS5003;61846;52.970;-3.168;2022-10-16T14:36:28;1;1;
73565;PMS5003;61846;52.970;-3.168;2022-10-16T14:38:56;2;2;
73565;PMS5003;61846;52.970;-3.168;2022-10-16T14:41:20;2;2;
73565;PMS5003;61846;52.970;-3.168;2022-10-16T14:43:44;1;1;
73565;PMS5003;61846;52.970;-3.168;2022-10-16T14:46:11;5;3;
73565;PMS5003;61846;52.970;-3.168;2022-10-16T14:48:35;5;5;
73565;PMS5003;61846;52.970;-3.168;2022-10-16T14:51:01;5;5;
73565;PMS5003;61846;52.970;-3.168;2022-10-16T14:53:26;2;2;
73565;PMS5003;61846;52.970;-3.168;2022-10-16T14:55:52;2;2;
73565;PMS5003;61846;52.970;-3.168;2022-10-16T14:58:18;4;1;
73565;PMS5003;61846;52.970;-3.168;2022-10-16T15:00:43;2;1;
73565;PMS5003;61846;52.970;-3.168;2022-10-16T15:03:08;2;2;
73565;PMS5003;61846;52.970;-3.168;2022-10-16T15:05:33;3;3;
73565;PMS5003;61846;52.970;-3.168;2022-10-16T15:07:59;2;1;
73565;PMS5003;61846;52.970;-3.168;2022-10-16T15:10:25;3;2;
73565;PMS5003;61846;52.970;-3.168;2022-10-16T15:12:50;1;1;
73565;PMS5003;61846;52.970;-3.168;2022-10-16T15:15:21;3;2;
73565;PMS5003;61846;52.970;-3.168;2022-10-16T15:17:41;7;5;
73565;PMS5003;61846;52.970;-3.168;2022-10-16T15:20:06;8;8;
73565;PMS5003;61846;52.970;-3.168;2022-10-16T15:22:31;6;6;
73565;PMS5003;61846;52.970;-3.168;2022-10-16T15:24:57;10;5;
73565;PMS5003;61846;52.970;-3.168;2022-10-16T15:27:22;3;3;
73565;PMS5003;61846;52.970;-3.168;2022-10-16T15:29:48;4;2;
73565;PMS5003;61846;52.970;-3.168;2022-10-16T15:32:13;7;5;
73565;PMS5003;61846;52.970;-3.168;2022-10-16T15:34:39;4;4;
73565;PMS5003;61846;52.970;-3.168;2022-10-16T15:37:04;5;4;
73565;PMS5003;61846;52.970;-3.168;2022-10-16T15:39:30;4;2;
73565;PMS5003;61846;52.970;-3.168;2022-10-16T15:41:55;2;2;
73565;PMS5003;61846;52.970;-3.168;2022-10-16T15:44:21;3;3;
73565;PMS5003;61846;52.970;-3.168;2022-10-16T15:46:46;6;4;
73565;PMS5003;61846;52.970;-3.168;2022-10-16T15:49:12;3;2;
73565;PMS5003;61846;52.970;-3.168;2022-10-16T15:51:38;3;2;
73565;PMS5003;61846;52.970;-3.168;2022-10-16T15:54:03;4;2;
73565;PMS5003;61846;52.970;-3.168;2022-10-16T15:56:28;2;2;
73565;PMS5003;61846;52.970;-3.168;2022-10-16T15:58:54;2;1;
73565;PMS5003;61846;52.970;-3.168;2022-10-16T16:01:19;2;2;
73565;PMS5003;61846;52.970;-3.168;2022-10-16T16:03:44;6;2;
73565;PMS5003;61846;52.970;-3.168;2022-10-16T16:06:11;5;3;
73565;PMS5003;61846;52.970;-3.168;2022-10-16T16:08:35;2;1;
73565;PMS5003;61846;52.970;-3.168;2022-10-16T16:11:02;1;1;
73565;PMS5003;61846;52.970;-3.168;2022-10-16T16:13:27;5;5;
73565;PMS5003;61846;52.970;-3.168;2022-10-16T16:15:52;2;2;
73565;PMS5003;61846;52.970;-3.168;2022-10-16T16:18:17;5;4;
73565;PMS5003;61846;52.970;-3.168;2022-10-16T16:20:43;3;2;
73565;PMS5003;61846;52.970;-3.168;2022-10-16T16:23:08;9;5;
73565;PMS5003;61846;52.970;-3.168;2022-10-16T16:25:34;2;2;
73565;PMS5003;61846;52.970;-3.168;2022-10-16T16:27:59;7;5;
73565;PMS5003;61846;52.970;-3.168;2022-10-16T16:30:25;2;2;
73565;PMS5003;61846;52.970;-3.168;2022-10-16T16:32:50;3;2;
73565;PMS5003;61846;52.970;-3.168;2022-10-16T16:35:16;2;2;
73565;PMS5003;61846;52.970;-3.168;2022-10-16T16:37:41;3;3;